sensor_id;sensor_type;location;lat;lon;timestamp;P1;P2;P0
31330;PMS5003;34067;39.548;-76.088;2023-08-08T00:01:31;1;0;
31330;PMS5003;34067;39.548;-76.088;2023-08-08T00:03:59;3;2;
31330;PMS5003;34067;39.548;-76.088;2023-08-08T00:06:27;1;1;
31330;PMS5003;34067;39.548;-76.088;2023-08-08T00:08:55;1;1;
31330;PMS5003;34067;39.548;-76.088;2023-08-08T00:11:23;0;0;
31330;PMS5003;34067;39.548;-76.088;2023-08-08T00:13:51;1;1;
31330;PMS5003;34067;39.548;-76.088;2023-08-08T00:16:18;0;0;
31330;PMS5003;34067;39.548;-76.088;2023-08-08T00:18:46;0;0;
31330;PMS5003;34067;39.548;-76.088;2023-08-08T00:21:14;2;2;
31330;PMS5003;34067;39.548;-76.088;2023-08-08T00:23:42;1;1;
31330;PMS5003;34067;39.548;-76.088;2023-08-08T00:26:09;1;1;
31330;PMS5003;34067;39.548;-76.088;2023-08-08T00:28:37;0;0;
31330;PMS5003;34067;39.548;-76.088;2023-08-08T00:31:05;1;1;
31330;PMS5003;34067;39.548;-76.088;2023-08-08T00:33:33;2;1;
31330;PMS5003;34067;39.548;-76.088;2023-08-08T00:36:01;2;1;
31330;PMS5003;34067;39.548;-76.088;2023-08-08T00:38:30;1;1;
31330;PMS5003;34067;39.548;-76.088;2023-08-08T00:40:58;2;2;
31330;PMS5003;34067;39.548;-76.088;2023-08-08T00:43:26;2;1;
31330;PMS5003;34067;39.548;-76.088;2023-08-08T00:45:54;4;2;
31330;PMS5003;34067;39.548;-76.088;2023-08-08T00:48:22;3;3;
31330;PMS5003;34067;39.548;-76.088;2023-08-08T00:50:50;2;2;
31330;PMS5003;34067;39.548;-76.088;2023-08-08T00:53:18;3;2;
31330;PMS5003;34067;39.548;-76.088;2023-08-08T00:55:47;2;2;
31330;PMS5003;34067;39.548;-76.088;2023-08-08T00:58:17;3;3;
31330;PMS5003;34067;39.548;-76.088;2023-08-08T01:00:45;1;1;
31330;PMS5003;34067;39.548;-76.088;2023-08-08T01:03:13;3;2;
31330;PMS5003;34067;39.548;-76.088;2023-08-08T01:05:42;1;1;
31330;PMS5003;34067;39.548;-76.088;2023-08-08T01:08:15;2;2;
31330;PMS5003;34067;39.548;-76.088;2023-08-08T01:10:49;2;2;
31330;PMS5003;34067;39.548;-76.088;2023-08-08T01:13:17;1;1;
31330;PMS5003;34067;39.548;-76.088;2023-08-08T01:15:48;4;3;
31330;PMS5003;34067;39.548;-76.088;2023-08-08T01:18:18;2;2;
31330;PMS5003;34067;39.548;-76.088;2023-08-08T01:20:46;5;4;
31330;PMS5003;34067;39.548;-76.088;2023-08-08T01:23:16;1;1;
31330;PMS5003;34067;39.548;-76.088;2023-08-08T01:25:50;6;6;
31330;PMS5003;34067;39.548;-76.088;2023-08-08T01:28:20;7;7;
31330;PMS5003;34067;39.548;-76.088;2023-08-08T01:30:48;9;9;
31330;PMS5003;34067;39.548;-76.088;2023-08-08T01:33:16;15;15;
31330;PMS5003;34067;39.548;-76.088;2023-08-08T01:35:46;18;18;
31330;PMS5003;34067;39.548;-76.088;2023-08-08T01:38:19;27;27;
31330;PMS5003;34067;39.548;-76.088;2023-08-08T01:40:52;19;19;
31330;PMS5003;34067;39.548;-76.088;2023-08-08T01:43:23;27;26;
31330;PMS5003;34067;39.548;-76.088;2023-08-08T01:45:52;28;27;
31330;PMS5003;34067;39.548;-76.088;2023-08-08T01:48:20;24;24;
31330;PMS5003;34067;39.548;-76.088;2023-08-08T01:50:48;31;30;
31330;PMS5003;34067;39.548;-76.088;2023-08-08T01:53:16;36;36;
31330;PMS5003;34067;39.548;-76.088;2023-08-08T01:55:46;36;36;
31330;PMS5003;34067;39.548;-76.088;2023-08-08T01:58:14;35;34;
31330;PMS5003;34067;39.548;-76.088;2023-08-08T02:00:42;32;32;
31330;PMS5003;34067;39.548;-76.088;2023-08-08T02:03:09;19;19;
31330;PMS5003;34067;39.548;-76.088;2023-08-08T02:05:38;13;12;
31330;PMS5003;34067;39.548;-76.088;2023-08-08T02:08:05;9;8;
31330;PMS5003;34067;39.548;-76.088;2023-08-08T02:10:34;5;5;
31330;PMS5003;34067;39.548;-76.088;2023-08-08T02:13:02;4;4;
31330;PMS5003;34067;39.548;-76.088;2023-08-08T02:15:31;1;1;
31330;PMS5003;34067;39.548;-76.088;2023-08-08T02:17:59;1;1;
31330;PMS5003;34067;39.548;-76.088;2023-08-08T02:20:26;1;1;
31330;PMS5003;34067;39.548;-76.088;2023-08-08T02:22:54;1;1;
31330;PMS5003;34067;39.548;-76.088;2023-08-08T02:25:22;3;1;
31330;PMS5003;34067;39.548;-76.088;2023-08-08T02:27:50;2;2;
31330;PMS5003;34067;39.548;-76.088;2023-08-08T02:30:18;1;1;
31330;PMS5003;34067;39.548;-76.088;2023-08-08T02:32:46;1;1;
31330;PMS5003;34067;39.548;-76.088;2023-08-08T02:35:13;1;1;
31330;PMS5003;34067;39.548;-76.088;2023-08-08T02:37:41;2;1;
31330;PMS5003;34067;39.548;-76.088;2023-08-08T02:40:10;2;2;
31330;PMS5003;34067;39.548;-76.088;2023-08-08T02:42:38;2;1;
31330;PMS5003;34067;39.548;-76.088;2023-08-08T02:45:06;3;2;
31330;PMS5003;34067;39.548;-76.088;2023-08-08T02:47:34;1;1;
31330;PMS5003;34067;39.548;-76.088;2023-08-08T02:50:02;1;1;
31330;PMS5003;34067;39.548;-76.088;2023-08-08T02:52:31;2;1;
31330;PMS5003;34067;39.548;-76.088;2023-08-08T02:54:59;2;2;
31330;PMS5003;34067;39.548;-76.088;2023-08-08T02:57:27;12;11;
31330;PMS5003;34067;39.548;-76.088;2023-08-08T02:59:54;21;18;
31330;PMS5003;34067;39.548;-76.088;2023-08-08T03:02:22;1;1;
31330;PMS5003;34067;39.548;-76.088;2023-08-08T03:04:50;0;0;
31330;PMS5003;34067;39.548;-76.088;2023-08-08T03:07:17;1;1;
31330;PMS5003;34067;39.548;-76.088;2023-08-08T03:09:45;1;1;
31330;PMS5003;34067;39.548;-76.088;2023-08-08T03:12:13;2;1;
31330;PMS5003;34067;39.548;-76.088;2023-08-08T03:14:41;1;1;
31330;PMS5003;34067;39.548;-76.088;2023-08-08T03:17:09;2;0;
31330;PMS5003;34067;39.548;-76.088;2023-08-08T03:19:37;0;0;
31330;PMS5003;34067;39.548;-76.088;2023-08-08T03:22:04;1;1;
31330;PMS5003;34067;39.548;-76.088;2023-08-08T03:24:32;1;1;
31330;PMS5003;34067;39.548;-76.088;2023-08-08T03:27:00;2;2;
31330;PMS5003;34067;39.548;-76.088;2023-08-08T03:29:28;1;1;
31330;PMS5003;34067;39.548;-76.088;2023-08-08T03:31:56;3;3;
31330;PMS5003;34067;39.548;-76.088;2023-08-08T03:34:23;0;0;
31330;PMS5003;34067;39.548;-76.088;2023-08-08T03:36:51;2;2;
31330;PMS5003;34067;39.548;-76.088;2023-08-08T03:39:19;2;2;
31330;PMS5003;34067;39.548;-76.088;2023-08-08T03:41:47;2;1;
31330;PMS5003;34067;39.548;-76.088;2023-08-08T03:44:15;3;3;
31330;PMS5003;34067;39.548;-76.088;2023-08-08T03:46:43;2;2;
31330;PMS5003;34067;39.548;-76.088;2023-08-08T03:49:10;2;2;
31330;PMS5003;34067;39.548;-76.088;2023-08-08T03:51:38;3;1;
31330;PMS5003;34067;39.548;-76.088;2023-08-08T03:54:06;1;1;
31330;PMS5003;34067;39.548;-76.088;2023-08-08T03:56:34;2;2;
31330;PMS5003;34067;39.548;-76.088;2023-08-08T03:59:02;3;2;
31330;PMS5003;34067;39.548;-76.088;2023-08-08T04:01:29;3;2;
31330;PMS5003;34067;39.548;-76.088;2023-08-08T04:03:57;2;2;
31330;PMS5003;34067;39.548;-76.088;2023-08-08T04:06:25;2;1;
31330;PMS5003;34067;39.548;-76.088;2023-08-08T04:08:53;3;2;
31330;PMS5003;34067;39.548;-76.088;2023-08-08T04:11:21;2;2;
31330;PMS5003;34067;39.548;-76.088;2023-08-08T04:13:48;2;2;
31330;PMS5003;34067;39.548;-76.088;2023-08-08T04:16:16;1;1;
31330;PMS5003;34067;39.548;-76.088;2023-08-08T04:18:44;3;3;
31330;PMS5003;34067;39.548;-76.088;2023-08-08T04:21:12;1;1;
31330;PMS5003;34067;39.548;-76.088;2023-08-08T04:23:40;2;2;
31330;PMS5003;34067;39.548;-76.088;2023-08-08T04:26:08;2;2;
31330;PMS5003;34067;39.548;-76.088;2023-08-08T04:28:35;3;3;
31330;PMS5003;34067;39.548;-76.088;2023-08-08T04:31:03;3;2;
31330;PMS5003;34067;39.548;-76.088;2023-08-08T04:33:31;2;2;
31330;PMS5003;34067;39.548;-76.088;2023-08-08T04:35:59;3;2;
31330;PMS5003;34067;39.548;-76.088;2023-08-08T04:38:27;0;0;
31330;PMS5003;34067;39.548;-76.088;2023-08-08T04:40:54;3;3;
31330;PMS5003;34067;39.548;-76.088;2023-08-08T04:43:23;1;1;
31330;PMS5003;34067;39.548;-76.088;2023-08-08T04:45:50;2;2;
31330;PMS5003;34067;39.548;-76.088;2023-08-08T04:48:18;1;1;
31330;PMS5003;34067;39.548;-76.088;2023-08-08T04:50:46;2;2;
31330;PMS5003;34067;39.548;-76.088;2023-08-08T04:53:14;3;3;
31330;PMS5003;34067;39.548;-76.088;2023-08-08T04:55:41;3;2;
31330;PMS5003;34067;39.548;-76.088;2023-08-08T04:58:09;4;4;
31330;PMS5003;34067;39.548;-76.088;2023-08-08T05:03:13;2;2;
31330;PMS5003;34067;39.548;-76.088;2023-08-08T05:05:41;3;3;
31330;PMS5003;34067;39.548;-76.088;2023-08-08T05:08:09;2;2;
31330;PMS5003;34067;39.548;-76.088;2023-08-08T05:10:37;4;4;
31330;PMS5003;34067;39.548;-76.088;2023-08-08T05:13:05;3;3;
31330;PMS5003;34067;39.548;-76.088;2023-08-08T05:15:32;4;3;
31330;PMS5003;34067;39.548;-76.088;2023-08-08T05:18:00;3;3;
31330;PMS5003;34067;39.548;-76.088;2023-08-08T05:20:28;1;1;
31330;PMS5003;34067;39.548;-76.088;2023-08-08T05:22:56;4;3;
31330;PMS5003;34067;39.548;-76.088;2023-08-08T05:25:24;4;3;
31330;PMS5003;34067;39.548;-76.088;2023-08-08T05:27:51;3;3;
31330;PMS5003;34067;39.548;-76.088;2023-08-08T05:30:19;2;2;
31330;PMS5003;34067;39.548;-76.088;2023-08-08T05:32:48;4;3;
31330;PMS5003;34067;39.548;-76.088;2023-08-08T05:35:16;2;2;
31330;PMS5003;34067;39.548;-76.088;2023-08-08T05:37:44;4;4;
31330;PMS5003;34067;39.548;-76.088;2023-08-08T05:40:12;3;2;
31330;PMS5003;34067;39.548;-76.088;2023-08-08T05:42:39;2;2;
31330;PMS5003;34067;39.548;-76.088;2023-08-08T05:45:08;2;2;
31330;PMS5003;34067;39.548;-76.088;2023-08-08T05:47:36;4;4;
31330;PMS5003;34067;39.548;-76.088;2023-08-08T05:50:05;2;2;
31330;PMS5003;34067;39.548;-76.088;2023-08-08T05:52:33;3;3;
31330;PMS5003;34067;39.548;-76.088;2023-08-08T05:55:01;4;4;
31330;PMS5003;34067;39.548;-76.088;2023-08-08T05:57:29;3;3;
31330;PMS5003;34067;39.548;-76.088;2023-08-08T05:59:57;4;4;
31330;PMS5003;34067;39.548;-76.088;2023-08-08T06:02:25;2;2;
31330;PMS5003;34067;39.548;-76.088;2023-08-08T06:04:53;3;3;
31330;PMS5003;34067;39.548;-76.088;2023-08-08T06:07:21;5;5;
31330;PMS5003;34067;39.548;-76.088;2023-08-08T06:09:48;6;6;
31330;PMS5003;34067;39.548;-76.088;2023-08-08T06:12:16;5;5;
31330;PMS5003;34067;39.548;-76.088;2023-08-08T06:14:44;9;8;
31330;PMS5003;34067;39.548;-76.088;2023-08-08T06:17:12;5;5;
31330;PMS5003;34067;39.548;-76.088;2023-08-08T06:19:40;8;7;
31330;PMS5003;34067;39.548;-76.088;2023-08-08T06:22:07;9;8;
31330;PMS5003;34067;39.548;-76.088;2023-08-08T06:24:35;9;9;
31330;PMS5003;34067;39.548;-76.088;2023-08-08T06:27:03;9;9;
31330;PMS5003;34067;39.548;-76.088;2023-08-08T06:29:31;11;10;
31330;PMS5003;34067;39.548;-76.088;2023-08-08T06:31:59;11;11;
31330;PMS5003;34067;39.548;-76.088;2023-08-08T06:34:27;11;11;
31330;PMS5003;34067;39.548;-76.088;2023-08-08T06:36:55;10;10;
31330;PMS5003;34067;39.548;-76.088;2023-08-08T06:39:22;10;10;
31330;PMS5003;34067;39.548;-76.088;2023-08-08T06:41:50;11;10;
31330;PMS5003;34067;39.548;-76.088;2023-08-08T06:44:18;10;10;
31330;PMS5003;34067;39.548;-76.088;2023-08-08T06:46:46;13;12;
31330;PMS5003;34067;39.548;-76.088;2023-08-08T06:49:14;14;14;
31330;PMS5003;34067;39.548;-76.088;2023-08-08T06:51:42;12;12;
31330;PMS5003;34067;39.548;-76.088;2023-08-08T06:54:10;12;12;
31330;PMS5003;34067;39.548;-76.088;2023-08-08T06:56:37;14;12;
31330;PMS5003;34067;39.548;-76.088;2023-08-08T06:59:06;13;12;
31330;PMS5003;34067;39.548;-76.088;2023-08-08T07:01:33;11;10;
31330;PMS5003;34067;39.548;-76.088;2023-08-08T07:04:01;16;15;
31330;PMS5003;34067;39.548;-76.088;2023-08-08T07:06:29;11;10;
31330;PMS5003;34067;39.548;-76.088;2023-08-08T07:08:57;11;9;
31330;PMS5003;34067;39.548;-76.088;2023-08-08T07:11:24;8;8;
31330;PMS5003;34067;39.548;-76.088;2023-08-08T07:13:52;7;6;
31330;PMS5003;34067;39.548;-76.088;2023-08-08T07:16:20;8;8;
31330;PMS5003;34067;39.548;-76.088;2023-08-08T07:18:48;7;6;
31330;PMS5003;34067;39.548;-76.088;2023-08-08T07:21:16;6;6;
31330;PMS5003;34067;39.548;-76.088;2023-08-08T07:23:44;6;5;
31330;PMS5003;34067;39.548;-76.088;2023-08-08T07:26:12;7;6;
31330;PMS5003;34067;39.548;-76.088;2023-08-08T07:28:39;4;4;
31330;PMS5003;34067;39.548;-76.088;2023-08-08T07:31:07;4;4;
31330;PMS5003;34067;39.548;-76.088;2023-08-08T07:33:35;3;3;
31330;PMS5003;34067;39.548;-76.088;2023-08-08T07:36:03;4;3;
31330;PMS5003;34067;39.548;-76.088;2023-08-08T07:38:32;5;5;
31330;PMS5003;34067;39.548;-76.088;2023-08-08T07:41:00;8;7;
31330;PMS5003;34067;39.548;-76.088;2023-08-08T07:43:27;5;5;
31330;PMS5003;34067;39.548;-76.088;2023-08-08T07:45:55;6;5;
31330;PMS5003;34067;39.548;-76.088;2023-08-08T07:48:23;4;4;
31330;PMS5003;34067;39.548;-76.088;2023-08-08T07:50:51;5;5;
31330;PMS5003;34067;39.548;-76.088;2023-08-08T07:53:19;5;5;
31330;PMS5003;34067;39.548;-76.088;2023-08-08T07:55:47;4;3;
31330;PMS5003;34067;39.548;-76.088;2023-08-08T07:58:15;6;6;
31330;PMS5003;34067;39.548;-76.088;2023-08-08T08:00:43;6;5;
31330;PMS5003;34067;39.548;-76.088;2023-08-08T08:03:10;6;6;
31330;PMS5003;34067;39.548;-76.088;2023-08-08T08:05:38;6;5;
31330;PMS5003;34067;39.548;-76.088;2023-08-08T08:08:06;8;7;
31330;PMS5003;34067;39.548;-76.088;2023-08-08T08:10:34;4;4;
31330;PMS5003;34067;39.548;-76.088;2023-08-08T08:13:02;7;6;
31330;PMS5003;34067;39.548;-76.088;2023-08-08T08:15:29;8;8;
31330;PMS5003;34067;39.548;-76.088;2023-08-08T08:17:57;6;6;
31330;PMS5003;34067;39.548;-76.088;2023-08-08T08:20:25;5;5;
31330;PMS5003;34067;39.548;-76.088;2023-08-08T08:22:53;7;6;
31330;PMS5003;34067;39.548;-76.088;2023-08-08T08:25:21;5;5;
31330;PMS5003;34067;39.548;-76.088;2023-08-08T08:27:49;6;5;
31330;PMS5003;34067;39.548;-76.088;2023-08-08T08:30:17;7;6;
31330;PMS5003;34067;39.548;-76.088;2023-08-08T08:32:45;6;5;
31330;PMS5003;34067;39.548;-76.088;2023-08-08T08:35:13;7;6;
31330;PMS5003;34067;39.548;-76.088;2023-08-08T08:37:41;6;6;
31330;PMS5003;34067;39.548;-76.088;2023-08-08T08:40:09;8;7;
31330;PMS5003;34067;39.548;-76.088;2023-08-08T08:42:38;9;7;
31330;PMS5003;34067;39.548;-76.088;2023-08-08T08:45:08;9;8;
31330;PMS5003;34067;39.548;-76.088;2023-08-08T08:47:36;9;9;
31330;PMS5003;34067;39.548;-76.088;2023-08-08T08:50:07;11;10;
31330;PMS5003;34067;39.548;-76.088;2023-08-08T08:52:36;9;9;
31330;PMS5003;34067;39.548;-76.088;2023-08-08T08:55:04;9;9;
31330;PMS5003;34067;39.548;-76.088;2023-08-08T08:57:33;6;6;
31330;PMS5003;34067;39.548;-76.088;2023-08-08T09:00:01;7;7;
31330;PMS5003;34067;39.548;-76.088;2023-08-08T09:02:29;7;7;
31330;PMS5003;34067;39.548;-76.088;2023-08-08T09:04:56;6;6;
31330;PMS5003;34067;39.548;-76.088;2023-08-08T09:07:25;7;7;
31330;PMS5003;34067;39.548;-76.088;2023-08-08T09:09:54;7;6;
31330;PMS5003;34067;39.548;-76.088;2023-08-08T09:12:22;9;9;
31330;PMS5003;34067;39.548;-76.088;2023-08-08T09:14:54;10;9;
31330;PMS5003;34067;39.548;-76.088;2023-08-08T09:17:24;8;8;
31330;PMS5003;34067;39.548;-76.088;2023-08-08T09:19:53;9;9;
31330;PMS5003;34067;39.548;-76.088;2023-08-08T09:22:21;9;8;
31330;PMS5003;34067;39.548;-76.088;2023-08-08T09:24:49;9;8;
31330;PMS5003;34067;39.548;-76.088;2023-08-08T09:27:17;10;9;
31330;PMS5003;34067;39.548;-76.088;2023-08-08T09:29:45;9;8;
31330;PMS5003;34067;39.548;-76.088;2023-08-08T09:32:13;13;12;
31330;PMS5003;34067;39.548;-76.088;2023-08-08T09:34:41;11;10;
31330;PMS5003;34067;39.548;-76.088;2023-08-08T09:37:09;9;9;
31330;PMS5003;34067;39.548;-76.088;2023-08-08T09:39:37;8;7;
31330;PMS5003;34067;39.548;-76.088;2023-08-08T09:42:05;12;12;
31330;PMS5003;34067;39.548;-76.088;2023-08-08T09:44:34;10;10;
31330;PMS5003;34067;39.548;-76.088;2023-08-08T09:47:02;11;9;
31330;PMS5003;34067;39.548;-76.088;2023-08-08T09:49:30;12;12;
31330;PMS5003;34067;39.548;-76.088;2023-08-08T09:52:00;10;9;
31330;PMS5003;34067;39.548;-76.088;2023-08-08T09:54:28;9;9;
31330;PMS5003;34067;39.548;-76.088;2023-08-08T09:56:57;13;11;
31330;PMS5003;34067;39.548;-76.088;2023-08-08T09:59:25;9;9;
31330;PMS5003;34067;39.548;-76.088;2023-08-08T10:01:53;9;8;
31330;PMS5003;34067;39.548;-76.088;2023-08-08T10:04:23;12;11;
31330;PMS5003;34067;39.548;-76.088;2023-08-08T10:06:52;11;10;
31330;PMS5003;34067;39.548;-76.088;2023-08-08T10:09:20;10;9;
31330;PMS5003;34067;39.548;-76.088;2023-08-08T10:11:48;10;10;
31330;PMS5003;34067;39.548;-76.088;2023-08-08T10:14:17;9;9;
31330;PMS5003;34067;39.548;-76.088;2023-08-08T10:16:44;10;10;
31330;PMS5003;34067;39.548;-76.088;2023-08-08T10:19:14;11;11;
31330;PMS5003;34067;39.548;-76.088;2023-08-08T10:21:55;8;7;
31330;PMS5003;34067;39.548;-76.088;2023-08-08T10:24:25;8;8;
31330;PMS5003;34067;39.548;-76.088;2023-08-08T10:27:00;9;8;
31330;PMS5003;34067;39.548;-76.088;2023-08-08T10:29:29;11;9;
31330;PMS5003;34067;39.548;-76.088;2023-08-08T10:31:59;9;9;
31330;PMS5003;34067;39.548;-76.088;2023-08-08T10:34:36;8;8;
31330;PMS5003;34067;39.548;-76.088;2023-08-08T10:37:09;9;9;
31330;PMS5003;34067;39.548;-76.088;2023-08-08T10:39:37;6;6;
31330;PMS5003;34067;39.548;-76.088;2023-08-08T10:42:17;8;8;
31330;PMS5003;34067;39.548;-76.088;2023-08-08T10:44:50;8;8;
31330;PMS5003;34067;39.548;-76.088;2023-08-08T10:47:21;7;6;
31330;PMS5003;34067;39.548;-76.088;2023-08-08T10:49:56;10;10;
31330;PMS5003;34067;39.548;-76.088;2023-08-08T10:52:25;7;7;
31330;PMS5003;34067;39.548;-76.088;2023-08-08T10:54:53;10;8;
31330;PMS5003;34067;39.548;-76.088;2023-08-08T10:57:24;10;10;
31330;PMS5003;34067;39.548;-76.088;2023-08-08T10:59:53;9;9;
31330;PMS5003;34067;39.548;-76.088;2023-08-08T11:02:20;9;9;
31330;PMS5003;34067;39.548;-76.088;2023-08-08T11:04:49;10;10;
31330;PMS5003;34067;39.548;-76.088;2023-08-08T11:07:18;9;9;
31330;PMS5003;34067;39.548;-76.088;2023-08-08T11:09:46;10;9;
31330;PMS5003;34067;39.548;-76.088;2023-08-08T11:12:15;9;8;
31330;PMS5003;34067;39.548;-76.088;2023-08-08T11:14:43;8;8;
31330;PMS5003;34067;39.548;-76.088;2023-08-08T11:17:11;8;7;
31330;PMS5003;34067;39.548;-76.088;2023-08-08T11:19:40;6;5;
31330;PMS5003;34067;39.548;-76.088;2023-08-08T11:22:09;9;7;
31330;PMS5003;34067;39.548;-76.088;2023-08-08T11:24:37;7;7;
31330;PMS5003;34067;39.548;-76.088;2023-08-08T11:27:05;7;5;
31330;PMS5003;34067;39.548;-76.088;2023-08-08T11:29:33;6;6;
31330;PMS5003;34067;39.548;-76.088;2023-08-08T11:32:00;5;5;
31330;PMS5003;34067;39.548;-76.088;2023-08-08T11:34:30;11;10;
31330;PMS5003;34067;39.548;-76.088;2023-08-08T11:36:59;6;6;
31330;PMS5003;34067;39.548;-76.088;2023-08-08T11:39:27;5;4;
31330;PMS5003;34067;39.548;-76.088;2023-08-08T11:41:57;5;5;
31330;PMS5003;34067;39.548;-76.088;2023-08-08T11:44:24;4;4;
31330;PMS5003;34067;39.548;-76.088;2023-08-08T11:46:53;12;10;
31330;PMS5003;34067;39.548;-76.088;2023-08-08T11:49:21;4;4;
31330;PMS5003;34067;39.548;-76.088;2023-08-08T11:51:49;6;6;
31330;PMS5003;34067;39.548;-76.088;2023-08-08T11:54:17;6;6;
31330;PMS5003;34067;39.548;-76.088;2023-08-08T11:56:46;4;4;
31330;PMS5003;34067;39.548;-76.088;2023-08-08T11:59:14;2;2;
31330;PMS5003;34067;39.548;-76.088;2023-08-08T12:01:42;2;2;
31330;PMS5003;34067;39.548;-76.088;2023-08-08T12:04:10;3;3;
31330;PMS5003;34067;39.548;-76.088;2023-08-08T12:06:37;5;4;
31330;PMS5003;34067;39.548;-76.088;2023-08-08T12:09:06;3;3;
31330;PMS5003;34067;39.548;-76.088;2023-08-08T12:11:34;4;4;
31330;PMS5003;34067;39.548;-76.088;2023-08-08T12:14:01;5;4;
31330;PMS5003;34067;39.548;-76.088;2023-08-08T12:16:29;3;3;
31330;PMS5003;34067;39.548;-76.088;2023-08-08T12:18:57;3;3;
31330;PMS5003;34067;39.548;-76.088;2023-08-08T12:21:29;4;3;
31330;PMS5003;34067;39.548;-76.088;2023-08-08T12:23:57;1;1;
31330;PMS5003;34067;39.548;-76.088;2023-08-08T12:26:25;3;3;
31330;PMS5003;34067;39.548;-76.088;2023-08-08T12:28:53;4;4;
31330;PMS5003;34067;39.548;-76.088;2023-08-08T12:31:21;2;2;
31330;PMS5003;34067;39.548;-76.088;2023-08-08T12:33:49;2;2;
31330;PMS5003;34067;39.548;-76.088;2023-08-08T12:36:17;2;2;
31330;PMS5003;34067;39.548;-76.088;2023-08-08T12:38:45;4;4;
31330;PMS5003;34067;39.548;-76.088;2023-08-08T12:41:13;3;2;
31330;PMS5003;34067;39.548;-76.088;2023-08-08T12:43:40;1;1;
31330;PMS5003;34067;39.548;-76.088;2023-08-08T12:46:08;2;2;
31330;PMS5003;34067;39.548;-76.088;2023-08-08T12:48:36;2;2;
31330;PMS5003;34067;39.548;-76.088;2023-08-08T12:51:04;2;2;
31330;PMS5003;34067;39.548;-76.088;2023-08-08T12:53:32;3;3;
31330;PMS5003;34067;39.548;-76.088;2023-08-08T12:56:00;2;2;
31330;PMS5003;34067;39.548;-76.088;2023-08-08T12:58:27;3;2;
31330;PMS5003;34067;39.548;-76.088;2023-08-08T13:00:55;3;2;
31330;PMS5003;34067;39.548;-76.088;2023-08-08T13:03:23;3;3;
31330;PMS5003;34067;39.548;-76.088;2023-08-08T13:05:50;3;3;
31330;PMS5003;34067;39.548;-76.088;2023-08-08T13:08:18;2;2;
31330;PMS5003;34067;39.548;-76.088;2023-08-08T13:10:46;2;2;
31330;PMS5003;34067;39.548;-76.088;2023-08-08T13:13:14;3;3;
31330;PMS5003;34067;39.548;-76.088;2023-08-08T13:15:42;3;2;
31330;PMS5003;34067;39.548;-76.088;2023-08-08T13:18:09;1;1;
31330;PMS5003;34067;39.548;-76.088;2023-08-08T13:20:37;3;3;
31330;PMS5003;34067;39.548;-76.088;2023-08-08T13:23:05;3;2;
31330;PMS5003;34067;39.548;-76.088;2023-08-08T13:25:33;3;3;
31330;PMS5003;34067;39.548;-76.088;2023-08-08T13:28:01;3;2;
31330;PMS5003;34067;39.548;-76.088;2023-08-08T13:30:29;3;3;
31330;PMS5003;34067;39.548;-76.088;2023-08-08T13:32:58;3;2;
31330;PMS5003;34067;39.548;-76.088;2023-08-08T13:35:25;3;3;
31330;PMS5003;34067;39.548;-76.088;2023-08-08T13:37:53;3;3;
31330;PMS5003;34067;39.548;-76.088;2023-08-08T13:40:21;3;2;
31330;PMS5003;34067;39.548;-76.088;2023-08-08T13:42:49;4;3;
31330;PMS5003;34067;39.548;-76.088;2023-08-08T13:45:17;3;3;
31330;PMS5003;34067;39.548;-76.088;2023-08-08T13:47:45;4;4;
31330;PMS5003;34067;39.548;-76.088;2023-08-08T13:50:13;4;4;
31330;PMS5003;34067;39.548;-76.088;2023-08-08T13:52:41;4;3;
31330;PMS5003;34067;39.548;-76.088;2023-08-08T13:55:09;2;2;
31330;PMS5003;34067;39.548;-76.088;2023-08-08T13:57:37;3;3;
31330;PMS5003;34067;39.548;-76.088;2023-08-08T14:00:05;3;3;
31330;PMS5003;34067;39.548;-76.088;2023-08-08T14:02:33;4;4;
31330;PMS5003;34067;39.548;-76.088;2023-08-08T14:05:01;4;4;
31330;PMS5003;34067;39.548;-76.088;2023-08-08T14:07:29;3;3;
31330;PMS5003;34067;39.548;-76.088;2023-08-08T14:09:56;3;3;
31330;PMS5003;34067;39.548;-76.088;2023-08-08T14:12:24;2;2;
31330;PMS5003;34067;39.548;-76.088;2023-08-08T14:14:52;2;2;
31330;PMS5003;34067;39.548;-76.088;2023-08-08T14:17:20;4;4;
31330;PMS5003;34067;39.548;-76.088;2023-08-08T14:19:48;4;3;
31330;PMS5003;34067;39.548;-76.088;2023-08-08T14:22:15;2;2;
31330;PMS5003;34067;39.548;-76.088;2023-08-08T14:24:43;3;3;
31330;PMS5003;34067;39.548;-76.088;2023-08-08T14:27:11;3;2;
31330;PMS5003;34067;39.548;-76.088;2023-08-08T14:29:39;3;3;
31330;PMS5003;34067;39.548;-76.088;2023-08-08T14:32:07;4;3;
31330;PMS5003;34067;39.548;-76.088;2023-08-08T14:34:34;3;3;
31330;PMS5003;34067;39.548;-76.088;2023-08-08T14:37:02;4;4;
31330;PMS5003;34067;39.548;-76.088;2023-08-08T14:39:30;4;4;
31330;PMS5003;34067;39.548;-76.088;2023-08-08T14:41:58;4;3;
31330;PMS5003;34067;39.548;-76.088;2023-08-08T14:44:25;2;2;
31330;PMS5003;34067;39.548;-76.088;2023-08-08T14:46:53;4;4;
31330;PMS5003;34067;39.548;-76.088;2023-08-08T14:49:21;4;4;
31330;PMS5003;34067;39.548;-76.088;2023-08-08T14:51:49;5;5;
31330;PMS5003;34067;39.548;-76.088;2023-08-08T14:54:17;4;4;
31330;PMS5003;34067;39.548;-76.088;2023-08-08T14:56:44;5;5;
31330;PMS5003;34067;39.548;-76.088;2023-08-08T14:59:13;6;6;
31330;PMS5003;34067;39.548;-76.088;2023-08-08T15:01:40;7;7;
31330;PMS5003;34067;39.548;-76.088;2023-08-08T15:04:08;4;4;
31330;PMS5003;34067;39.548;-76.088;2023-08-08T15:06:36;3;3;
31330;PMS5003;34067;39.548;-76.088;2023-08-08T15:09:04;5;5;
31330;PMS5003;34067;39.548;-76.088;2023-08-08T15:11:32;4;4;
31330;PMS5003;34067;39.548;-76.088;2023-08-08T15:14:00;4;4;
31330;PMS5003;34067;39.548;-76.088;2023-08-08T15:16:28;16;16;
31330;PMS5003;34067;39.548;-76.088;2023-08-08T15:18:56;11;11;
31330;PMS5003;34067;39.548;-76.088;2023-08-08T15:21:23;7;7;
31330;PMS5003;34067;39.548;-76.088;2023-08-08T15:23:51;34;34;
31330;PMS5003;34067;39.548;-76.088;2023-08-08T15:26:19;8;8;
31330;PMS5003;34067;39.548;-76.088;2023-08-08T15:28:47;3;3;
31330;PMS5003;34067;39.548;-76.088;2023-08-08T15:31:15;14;14;
31330;PMS5003;34067;39.548;-76.088;2023-08-08T15:33:43;4;4;
31330;PMS5003;34067;39.548;-76.088;2023-08-08T15:36:11;4;4;
31330;PMS5003;34067;39.548;-76.088;2023-08-08T15:38:38;5;4;
31330;PMS5003;34067;39.548;-76.088;2023-08-08T15:41:07;6;6;
31330;PMS5003;34067;39.548;-76.088;2023-08-08T15:43:35;4;4;
31330;PMS5003;34067;39.548;-76.088;2023-08-08T15:46:03;4;4;
31330;PMS5003;34067;39.548;-76.088;2023-08-08T15:48:31;4;4;
31330;PMS5003;34067;39.548;-76.088;2023-08-08T15:50:58;4;3;
31330;PMS5003;34067;39.548;-76.088;2023-08-08T15:53:26;5;5;
31330;PMS5003;34067;39.548;-76.088;2023-08-08T15:55:54;4;4;
31330;PMS5003;34067;39.548;-76.088;2023-08-08T15:58:22;6;6;
31330;PMS5003;34067;39.548;-76.088;2023-08-08T16:00:50;24;23;
31330;PMS5003;34067;39.548;-76.088;2023-08-08T16:03:18;8;8;
31330;PMS5003;34067;39.548;-76.088;2023-08-08T16:05:45;10;10;
31330;PMS5003;34067;39.548;-76.088;2023-08-08T16:08:13;21;21;
31330;PMS5003;34067;39.548;-76.088;2023-08-08T16:10:41;22;22;
31330;PMS5003;34067;39.548;-76.088;2023-08-08T16:13:10;27;27;
31330;PMS5003;34067;39.548;-76.088;2023-08-08T16:15:38;14;14;
31330;PMS5003;34067;39.548;-76.088;2023-08-08T16:18:05;10;10;
31330;PMS5003;34067;39.548;-76.088;2023-08-08T16:20:33;50;50;